sensor_id;sensor_type;location;lat;lon;timestamp;pressure;altitude;pressure_sealevel;temperature;humidity
81151;BME280;70629;-26.026;27.976;2023-11-18T00:00:17;86572.03;;;21.99;55.46
81151;BME280;70629;-26.026;27.976;2023-11-18T00:00:58;86578.63;;;21.76;55.46
81151;BME280;70629;-26.026;27.976;2023-11-18T00:01:37;86582.06;;;21.78;55.81
81151;BME280;70629;-26.026;27.976;2023-11-18T00:02:17;86586.13;;;21.75;56.01
81151;BME280;70629;-26.026;27.976;2023-11-18T00:02:57;86583.31;;;21.67;56.17
81151;BME280;70629;-26.026;27.976;2023-11-18T00:03:38;86582.41;;;21.47;57.19
81151;BME280;70629;-26.026;27.976;2023-11-18T00:04:18;86588.59;;;21.51;57.49
81151;BME280;70629;-26.026;27.976;2023-11-18T00:04:58;86591.19;;;21.39;57.22
81151;BME280;70629;-26.026;27.976;2023-11-18T00:05:39;86585.66;;;21.33;57.74
81151;BME280;70629;-26.026;27.976;2023-11-18T00:06:20;86581.47;;;21.30;58.09
81151;BME280;70629;-26.026;27.976;2023-11-18T00:06:59;86578.09;;;21.33;58.45
81151;BME280;70629;-26.026;27.976;2023-11-18T00:07:40;86574.75;;;21.39;58.34
81151;BME280;70629;-26.026;27.976;2023-11-18T00:08:20;86578.88;;;21.40;58.21
81151;BME280;70629;-26.026;27.976;2023-11-18T00:09:00;86576.28;;;21.52;58.46
81151;BME280;70629;-26.026;27.976;2023-11-18T00:09:40;86575.53;;;21.48;58.21
81151;BME280;70629;-26.026;27.976;2023-11-18T00:10:22;86584.28;;;21.34;58.71
81151;BME280;70629;-26.026;27.976;2023-11-18T00:11:03;86573.16;;;21.20;59.18
81151;BME280;70629;-26.026;27.976;2023-11-18T00:11:44;86574.00;;;21.32;58.98
81151;BME280;70629;-26.026;27.976;2023-11-18T00:12:24;86579.53;;;21.38;58.60
81151;BME280;70629;-26.026;27.976;2023-11-18T00:13:04;86575.50;;;21.41;58.58
81151;BME280;70629;-26.026;27.976;2023-11-18T00:13:43;86574.09;;;21.40;58.96
81151;BME280;70629;-26.026;27.976;2023-11-18T00:14:24;86573.59;;;21.54;58.73
81151;BME280;70629;-26.026;27.976;2023-11-18T00:15:04;86576.97;;;21.51;58.74
81151;BME280;70629;-26.026;27.976;2023-11-18T00:15:44;86582.97;;;21.39;59.16
81151;BME280;70629;-26.026;27.976;2023-11-18T00:16:25;86575.53;;;21.48;58.64
81151;BME280;70629;-26.026;27.976;2023-11-18T00:17:06;86574.78;;;21.41;59.08
81151;BME280;70629;-26.026;27.976;2023-11-18T00:17:46;86585.00;;;21.38;59.53
81151;BME280;70629;-26.026;27.976;2023-11-18T00:18:26;86572.88;;;21.54;58.91
81151;BME280;70629;-26.026;27.976;2023-11-18T00:19:06;86584.50;;;21.52;58.96
81151;BME280;70629;-26.026;27.976;2023-11-18T00:19:48;86579.75;;;21.57;58.94
81151;BME280;70629;-26.026;27.976;2023-11-18T00:20:28;86580.91;;;21.37;59.19
81151;BME280;70629;-26.026;27.976;2023-11-18T00:21:10;86572.94;;;21.58;58.91
81151;BME280;70629;-26.026;27.976;2023-11-18T00:21:50;86583.66;;;21.39;59.30
81151;BME280;70629;-26.026;27.976;2023-11-18T00:22:31;86575.44;;;21.39;59.67
81151;BME280;70629;-26.026;27.976;2023-11-18T00:23:11;86573.38;;;21.38;59.57
81151;BME280;70629;-26.026;27.976;2023-11-18T00:23:52;86574.75;;;21.37;59.79
81151;BME280;70629;-26.026;27.976;2023-11-18T00:24:32;86579.53;;;21.38;59.54
81151;BME280;70629;-26.026;27.976;2023-11-18T00:25:14;86575.00;;;21.59;59.30
81151;BME280;70629;-26.026;27.976;2023-11-18T00:25:54;86573.69;;;21.64;58.81
81151;BME280;70629;-26.026;27.976;2023-11-18T00:26:34;86571.47;;;21.49;59.25
81151;BME280;70629;-26.026;27.976;2023-11-18T00:27:14;86571.88;;;21.27;60.82
81151;BME280;70629;-26.026;27.976;2023-11-18T00:27:55;86565.91;;;21.42;60.46
81151;BME280;70629;-26.026;27.976;2023-11-18T00:28:34;86573.50;;;21.46;59.84
81151;BME280;70629;-26.026;27.976;2023-11-18T00:29:14;86570.53;;;21.30;60.40
81151;BME280;70629;-26.026;27.976;2023-11-18T00:29:54;86571.44;;;21.47;59.83
81151;BME280;70629;-26.026;27.976;2023-11-18T00:30:34;86566.03;;;21.53;59.60
81151;BME280;70629;-26.026;27.976;2023-11-18T00:31:14;86568.06;;;21.52;59.69
81151;BME280;70629;-26.026;27.976;2023-11-18T00:31:54;86572.59;;;21.29;60.23
81151;BME280;70629;-26.026;27.976;2023-11-18T00:32:34;86566.34;;;21.23;60.82
81151;BME280;70629;-26.026;27.976;2023-11-18T00:33:15;86573.75;;;21.14;60.90
81151;BME280;70629;-26.026;27.976;2023-11-18T00:33:55;86571.28;;;21.32;60.18
81151;BME280;70629;-26.026;27.976;2023-11-18T00:34:35;86570.56;;;21.32;60.11
81151;BME280;70629;-26.026;27.976;2023-11-18T00:35:14;86567.06;;;21.23;60.28
81151;BME280;70629;-26.026;27.976;2023-11-18T00:35:55;86562.16;;;21.16;60.40
81151;BME280;70629;-26.026;27.976;2023-11-18T00:36:35;86559.47;;;21.18;60.89
81151;BME280;70629;-26.026;27.976;2023-11-18T00:37:14;86564.22;;;21.17;60.51
81151;BME280;70629;-26.026;27.976;2023-11-18T00:37:54;86559.50;;;21.22;60.36
81151;BME280;70629;-26.026;27.976;2023-11-18T00:38:35;86564.97;;;21.22;60.74
81151;BME280;70629;-26.026;27.976;2023-11-18T00:39:16;86554.59;;;21.14;60.60
81151;BME280;70629;-26.026;27.976;2023-11-18T00:39:56;86552.47;;;21.09;60.64
81151;BME280;70629;-26.026;27.976;2023-11-18T00:40:36;86543.53;;;21.06;60.87
81151;BME280;70629;-26.026;27.976;2023-11-18T00:41:16;86547.22;;;21.25;60.45
81151;BME280;70629;-26.026;27.976;2023-11-18T00:41:56;86539.06;;;21.27;60.20
81151;BME280;70629;-26.026;27.976;2023-11-18T00:42:36;86547.31;;;21.31;60.01
81151;BME280;70629;-26.026;27.976;2023-11-18T00:43:16;86550.22;;;21.47;59.99
81151;BME280;70629;-26.026;27.976;2023-11-18T00:43:56;86547.53;;;21.49;59.76
81151;BME280;70629;-26.026;27.976;2023-11-18T00:44:36;86544.72;;;21.43;59.69
81151;BME280;70629;-26.026;27.976;2023-11-18T00:45:16;86545.31;;;21.35;60.33
81151;BME280;70629;-26.026;27.976;2023-11-18T00:45:57;86548.88;;;21.48;60.09
81151;BME280;70629;-26.026;27.976;2023-11-18T00:46:39;86542.16;;;21.59;59.65
81151;BME280;70629;-26.026;27.976;2023-11-18T00:47:19;86544.75;;;21.45;59.99
81151;BME280;70629;-26.026;27.976;2023-11-18T00:47:59;86543.31;;;21.40;60.34
81151;BME280;70629;-26.026;27.976;2023-11-18T00:48:39;86545.22;;;21.27;60.62
81151;BME280;70629;-26.026;27.976;2023-11-18T00:49:19;86543.34;;;21.44;60.18
81151;BME280;70629;-26.026;27.976;2023-11-18T00:49:59;86544.13;;;21.53;60.24
81151;BME280;70629;-26.026;27.976;2023-11-18T00:50:43;86537.31;;;21.54;60.22
81151;BME280;70629;-26.026;27.976;2023-11-18T00:51:22;86546.09;;;21.42;60.71
81151;BME280;70629;-26.026;27.976;2023-11-18T00:52:03;86537.81;;;21.38;61.07
81151;BME280;70629;-26.026;27.976;2023-11-18T00:52:43;86530.44;;;21.53;60.27
81151;BME280;70629;-26.026;27.976;2023-11-18T00:53:23;86537.06;;;21.33;60.70
81151;BME280;70629;-26.026;27.976;2023-11-18T00:54:05;86537.88;;;21.42;61.20
81151;BME280;70629;-26.026;27.976;2023-11-18T00:54:49;86535.06;;;21.38;60.61
81151;BME280;70629;-26.026;27.976;2023-11-18T00:55:29;86529.00;;;21.45;60.38
81151;BME280;70629;-26.026;27.976;2023-11-18T00:56:15;86526.94;;;21.42;60.56
81151;BME280;70629;-26.026;27.976;2023-11-18T00:56:57;86528.13;;;21.29;60.84
81151;BME280;70629;-26.026;27.976;2023-11-18T00:57:37;86518.44;;;21.18;61.16
81151;BME280;70629;-26.026;27.976;2023-11-18T00:58:19;86530.53;;;21.05;61.78
81151;BME280;70629;-26.026;27.976;2023-11-18T00:59:00;86525.38;;;21.29;60.80
81151;BME280;70629;-26.026;27.976;2023-11-18T00:59:43;86526.44;;;21.06;61.99
81151;BME280;70629;-26.026;27.976;2023-11-18T01:00:24;86526.63;;;21.18;61.23
81151;BME280;70629;-26.026;27.976;2023-11-18T01:01:05;86522.72;;;21.35;60.60
81151;BME280;70629;-26.026;27.976;2023-11-18T01:01:46;86528.06;;;21.23;61.07
81151;BME280;70629;-26.026;27.976;2023-11-18T01:02:25;86515.91;;;21.38;60.32
81151;BME280;70629;-26.026;27.976;2023-11-18T01:03:07;86517.25;;;21.35;60.46
81151;BME280;70629;-26.026;27.976;2023-11-18T01:03:49;86531.06;;;21.45;60.00
81151;BME280;70629;-26.026;27.976;2023-11-18T01:04:29;86522.13;;;21.42;59.78
81151;BME280;70629;-26.026;27.976;2023-11-18T01:05:12;86527.59;;;21.42;60.26
81151;BME280;70629;-26.026;27.976;2023-11-18T01:05:53;86525.47;;;21.35;59.96
81151;BME280;70629;-26.026;27.976;2023-11-18T01:06:33;86523.84;;;21.16;60.66
81151;BME280;70629;-26.026;27.976;2023-11-18T01:07:13;86530.84;;;21.27;60.86
81151;BME280;70629;-26.026;27.976;2023-11-18T01:07:53;86523.75;;;21.10;60.84
81151;BME280;70629;-26.026;27.976;2023-11-18T01:08:33;86541.53;;;21.11;61.34
81151;BME280;70629;-26.026;27.976;2023-11-18T01:09:13;86530.94;;;21.33;60.57
81151;BME280;70629;-26.026;27.976;2023-11-18T01:09:55;86531.59;;;21.33;60.04
81151;BME280;70629;-26.026;27.976;2023-11-18T01:10:35;86534.38;;;21.35;60.35
81151;BME280;70629;-26.026;27.976;2023-11-18T01:11:18;86533.66;;;21.35;60.18
81151;BME280;70629;-26.026;27.976;2023-11-18T01:11:58;86529.91;;;21.08;60.81
81151;BME280;70629;-26.026;27.976;2023-11-18T01:12:46;86532.25;;;21.30;60.57
81151;BME280;70629;-26.026;27.976;2023-11-18T01:13:26;86530.81;;;21.25;60.41
81151;BME280;70629;-26.026;27.976;2023-11-18T01:14:06;86527.44;;;21.28;60.63
81151;BME280;70629;-26.026;27.976;2023-11-18T01:14:47;86528.41;;;21.51;60.21
81151;BME280;70629;-26.026;27.976;2023-11-18T01:15:26;86520.22;;;21.57;59.85
81151;BME280;70629;-26.026;27.976;2023-11-18T01:16:06;86524.16;;;21.40;59.92
81151;BME280;70629;-26.026;27.976;2023-11-18T01:16:47;86528.53;;;21.63;59.39
81151;BME280;70629;-26.026;27.976;2023-11-18T01:17:27;86528.41;;;21.53;59.80
81151;BME280;70629;-26.026;27.976;2023-11-18T01:18:07;86521.47;;;21.44;59.79
81151;BME280;70629;-26.026;27.976;2023-11-18T01:18:46;86519.28;;;21.32;60.07
81151;BME280;70629;-26.026;27.976;2023-11-18T01:19:27;86522.47;;;21.15;60.56
81151;BME280;70629;-26.026;27.976;2023-11-18T01:20:08;86517.06;;;21.19;60.33
81151;BME280;70629;-26.026;27.976;2023-11-18T01:20:51;86517.50;;;21.01;60.87
81151;BME280;70629;-26.026;27.976;2023-11-18T01:21:31;86524.94;;;20.96;61.09
81151;BME280;70629;-26.026;27.976;2023-11-18T01:22:11;86521.84;;;21.18;60.85
81151;BME280;70629;-26.026;27.976;2023-11-18T01:22:51;86522.59;;;21.23;60.12
81151;BME280;70629;-26.026;27.976;2023-11-18T01:23:31;86515.78;;;21.26;60.44
81151;BME280;70629;-26.026;27.976;2023-11-18T01:24:11;86523.91;;;21.18;60.24
81151;BME280;70629;-26.026;27.976;2023-11-18T01:24:51;86519.94;;;21.31;59.97
81151;BME280;70629;-26.026;27.976;2023-11-18T01:25:31;86521.84;;;21.18;60.37
81151;BME280;70629;-26.026;27.976;2023-11-18T01:26:12;86519.81;;;21.19;59.98
81151;BME280;70629;-26.026;27.976;2023-11-18T01:26:55;86514.41;;;21.25;60.06
81151;BME280;70629;-26.026;27.976;2023-11-18T01:27:35;86515.19;;;21.33;59.69
81151;BME280;70629;-26.026;27.976;2023-11-18T01:28:14;86521.28;;;21.30;60.03
81151;BME280;70629;-26.026;27.976;2023-11-18T01:28:54;86522.00;;;21.30;59.75
81151;BME280;70629;-26.026;27.976;2023-11-18T01:29:35;86519.91;;;21.27;59.80
81151;BME280;70629;-26.026;27.976;2023-11-18T01:30:15;86517.97;;;20.85;60.94
81151;BME280;70629;-26.026;27.976;2023-11-18T01:30:55;86523.75;;;21.10;60.43
81151;BME280;70629;-26.026;27.976;2023-11-18T01:31:35;86517.00;;;21.15;60.22
81151;BME280;70629;-26.026;27.976;2023-11-18T01:32:29;86521.06;;;21.12;60.14
81151;BME280;70629;-26.026;27.976;2023-11-18T01:33:10;86522.75;;;20.85;60.96
81151;BME280;70629;-26.026;27.976;2023-11-18T01:33:50;86514.00;;;20.96;60.71
81151;BME280;70629;-26.026;27.976;2023-11-18T01:34:30;86512.75;;;21.03;60.77
81151;BME280;70629;-26.026;27.976;2023-11-18T01:35:10;86515.00;;;21.17;60.47
81151;BME280;70629;-26.026;27.976;2023-11-18T01:35:53;86517.16;;;21.27;59.68
81151;BME280;70629;-26.026;27.976;2023-11-18T01:36:34;86514.34;;;21.19;60.02
81151;BME280;70629;-26.026;27.976;2023-11-18T01:37:14;86519.91;;;21.29;59.90
81151;BME280;70629;-26.026;27.976;2023-11-18T01:37:54;86517.22;;;21.31;59.47
81151;BME280;70629;-26.026;27.976;2023-11-18T01:38:35;86518.28;;;21.10;59.90
81151;BME280;70629;-26.026;27.976;2023-11-18T01:39:17;86509.31;;;21.03;60.51
81151;BME280;70629;-26.026;27.976;2023-11-18T01:39:57;86512.16;;;21.11;60.38
81151;BME280;70629;-26.026;27.976;2023-11-18T01:40:37;86508.88;;;21.19;60.01
81151;BME280;70629;-26.026;27.976;2023-11-18T01:41:18;86514.34;;;21.19;60.16
81151;BME280;70629;-26.026;27.976;2023-11-18T01:41:58;86497.00;;;21.02;60.16
81151;BME280;70629;-26.026;27.976;2023-11-18T01:42:44;86514.28;;;21.15;60.53
81151;BME280;70629;-26.026;27.976;2023-11-18T01:43:25;86505.94;;;21.05;60.49
81151;BME280;70629;-26.026;27.976;2023-11-18T01:44:06;86505.44;;;21.18;59.83
81151;BME280;70629;-26.026;27.976;2023-11-18T01:44:47;86506.75;;;21.13;60.17
81151;BME280;70629;-26.026;27.976;2023-11-18T01:45:27;86508.75;;;21.13;60.27
81151;BME280;70629;-26.026;27.976;2023-11-18T01:46:09;86503.06;;;20.96;60.74
81151;BME280;70629;-26.026;27.976;2023-11-18T01:46:50;86502.50;;;21.04;60.89
81151;BME280;70629;-26.026;27.976;2023-11-18T01:47:33;86502.66;;;21.16;60.15
81151;BME280;70629;-26.026;27.976;2023-11-18T01:48:13;86500.34;;;20.94;60.76
81151;BME280;70629;-26.026;27.976;2023-11-18T01:48:54;86498.25;;;20.93;60.91
81151;BME280;70629;-26.026;27.976;2023-11-18T01:49:35;86506.22;;;20.77;61.64
81151;BME280;70629;-26.026;27.976;2023-11-18T01:50:19;86500.09;;;20.78;61.40
81151;BME280;70629;-26.026;27.976;2023-11-18T01:51:01;86496.25;;;20.97;61.13
81151;BME280;70629;-26.026;27.976;2023-11-18T01:51:45;86501.81;;;21.03;61.26
81151;BME280;70629;-26.026;27.976;2023-11-18T01:52:27;86503.25;;;21.09;61.08
81151;BME280;70629;-26.026;27.976;2023-11-18T01:53:11;86501.13;;;21.03;60.88
81151;BME280;70629;-26.026;27.976;2023-11-18T01:53:54;86502.38;;;20.94;61.28
81151;BME280;70629;-26.026;27.976;2023-11-18T01:54:38;86501.84;;;21.08;60.45
81151;BME280;70629;-26.026;27.976;2023-11-18T01:55:19;86501.97;;;21.14;60.58
81151;BME280;70629;-26.026;27.976;2023-11-18T01:56:01;86506.13;;;21.19;60.76
81151;BME280;70629;-26.026;27.976;2023-11-18T01:56:46;86499.81;;;21.10;60.77
81151;BME280;70629;-26.026;27.976;2023-11-18T01:57:26;86506.00;;;21.11;60.55
81151;BME280;70629;-26.026;27.976;2023-11-18T01:58:07;86501.91;;;21.12;60.92
81151;BME280;70629;-26.026;27.976;2023-11-18T01:58:50;86505.75;;;20.92;61.60
81151;BME280;70629;-26.026;27.976;2023-11-18T01:59:30;86502.63;;;21.14;61.00
81151;BME280;70629;-26.026;27.976;2023-11-18T02:00:13;86503.41;;;21.21;60.57
81151;BME280;70629;-26.026;27.976;2023-11-18T02:00:57;86501.91;;;21.12;60.57
81151;BME280;70629;-26.026;27.976;2023-11-18T02:01:37;86507.81;;;20.92;61.48
81151;BME280;70629;-26.026;27.976;2023-11-18T02:02:19;86499.59;;;20.92;61.27
81151;BME280;70629;-26.026;27.976;2023-11-18T02:03:02;86500.09;;;20.78;61.39
81151;BME280;70629;-26.026;27.976;2023-11-18T02:03:44;86498.78;;;20.81;61.72
81151;BME280;70629;-26.026;27.976;2023-11-18T02:04:24;86498.72;;;20.77;61.76
81151;BME280;70629;-26.026;27.976;2023-11-18T02:05:05;86503.81;;;21.01;61.12
81151;BME280;70629;-26.026;27.976;2023-11-18T02:05:47;86507.84;;;20.94;61.20
81151;BME280;70629;-26.026;27.976;2023-11-18T02:06:29;86506.00;;;21.11;60.89
81151;BME280;70629;-26.026;27.976;2023-11-18T02:07:09;86506.53;;;20.99;60.70
81151;BME280;70629;-26.026;27.976;2023-11-18T02:07:54;86497.47;;;20.84;61.15
81151;BME280;70629;-26.026;27.976;2023-11-18T02:08:34;86504.38;;;20.91;61.11
81151;BME280;70629;-26.026;27.976;2023-11-18T02:09:19;86503.25;;;21.09;60.69
81151;BME280;70629;-26.026;27.976;2023-11-18T02:10:07;86510.31;;;21.26;60.42
81151;BME280;70629;-26.026;27.976;2023-11-18T02:10:59;86510.72;;;21.06;60.10
81151;BME280;70629;-26.026;27.976;2023-11-18T02:11:45;86507.22;;;20.99;60.65
81151;BME280;70629;-26.026;27.976;2023-11-18T02:12:50;86508.03;;;21.08;60.32
81151;BME280;70629;-26.026;27.976;2023-11-18T02:13:34;86508.84;;;21.17;60.06
81151;BME280;70629;-26.026;27.976;2023-11-18T02:14:16;86507.38;;;21.12;59.62
81151;BME280;70629;-26.026;27.976;2023-11-18T02:14:58;86511.63;;;21.21;59.54
81151;BME280;70629;-26.026;27.976;2023-11-18T02:15:41;86517.00;;;21.15;59.66
81151;BME280;70629;-26.026;27.976;2023-11-18T02:16:22;86516.22;;;21.08;59.88
81151;BME280;70629;-26.026;27.976;2023-11-18T02:17:03;86518.59;;;20.82;60.16
81151;BME280;70629;-26.026;27.976;2023-11-18T02:17:45;86519.47;;;20.96;60.29
81151;BME280;70629;-26.026;27.976;2023-11-18T02:18:29;86521.16;;;21.20;59.87
81151;BME280;70629;-26.026;27.976;2023-11-18T02:19:20;86524.72;;;21.30;59.50
81151;BME280;70629;-26.026;27.976;2023-11-18T02:20:00;86522.47;;;21.15;60.11
81151;BME280;70629;-26.026;27.976;2023-11-18T02:20:41;86523.69;;;21.03;60.45
81151;BME280;70629;-26.026;27.976;2023-11-18T02:21:24;86530.63;;;21.13;59.52
81151;BME280;70629;-26.026;27.976;2023-11-18T02:22:05;86527.78;;;21.02;59.58
81151;BME280;70629;-26.026;27.976;2023-11-18T02:22:50;86521.72;;;21.10;59.91
81151;BME280;70629;-26.026;27.976;2023-11-18T02:23:31;86530.81;;;21.25;59.99
81151;BME280;70629;-26.026;27.976;2023-11-18T02:24:24;86532.22;;;21.28;59.48
81151;BME280;70629;-26.026;27.976;2023-11-18T02:25:04;86532.31;;;21.36;59.02
81151;BME280;70629;-26.026;27.976;2023-11-18T02:25:49;86530.31;;;21.42;58.55
81151;BME280;70629;-26.026;27.976;2023-11-18T02:26:29;86532.53;;;21.54;58.42
81151;BME280;70629;-26.026;27.976;2023-11-18T02:27:10;86528.47;;;21.59;57.85
81151;BME280;70629;-26.026;27.976;2023-11-18T02:27:53;86529.88;;;21.60;57.49
81151;BME280;70629;-26.026;27.976;2023-11-18T02:28:33;86522.16;;;21.44;58.35
81151;BME280;70629;-26.026;27.976;2023-11-18T02:29:13;86524.84;;;21.40;58.88
81151;BME280;70629;-26.026;27.976;2023-11-18T02:29:53;86527.53;;;21.36;59.05
81151;BME280;70629;-26.026;27.976;2023-11-18T02:30:34;86530.84;;;21.29;59.19
81151;BME280;70629;-26.026;27.976;2023-11-18T02:31:19;86532.41;;;21.42;58.87
81151;BME280;70629;-26.026;27.976;2023-11-18T02:32:23;86523.59;;;21.50;58.27
81151;BME280;70629;-26.026;27.976;2023-11-18T02:34:07;86519.69;;;21.13;59.60
81151;BME280;70629;-26.026;27.976;2023-11-18T02:34:56;86524.69;;;21.26;59.65
81151;BME280;70629;-26.026;27.976;2023-11-18T02:35:44;86533.53;;;21.25;59.74
81151;BME280;70629;-26.026;27.976;2023-11-18T02:36:32;86534.84;;;21.18;60.03
81151;BME280;70629;-26.026;27.976;2023-11-18T02:37:18;86529.47;;;21.26;59.47
81151;BME280;70629;-26.026;27.976;2023-11-18T02:38:00;86535.00;;;21.32;59.07
81151;BME280;70629;-26.026;27.976;2023-11-18T02:38:49;86532.88;;;21.26;59.59
81151;BME280;70629;-26.026;27.976;2023-11-18T02:39:42;86536.19;;;21.17;60.02
81151;BME280;70629;-26.026;27.976;2023-11-18T02:40:32;86539.06;;;21.27;60.08
81151;BME280;70629;-26.026;27.976;2023-11-18T02:41:13;86540.38;;;21.24;60.86
81151;BME280;70629;-26.026;27.976;2023-11-18T02:41:54;86539.13;;;21.35;59.98
81151;BME280;70629;-26.026;27.976;2023-11-18T02:42:36;86542.47;;;21.27;60.44
81151;BME280;70629;-26.026;27.976;2023-11-18T02:43:18;86545.97;;;21.34;60.90
81151;BME280;70629;-26.026;27.976;2023-11-18T02:43:59;86539.19;;;21.39;59.99
81151;BME280;70629;-26.026;27.976;2023-11-18T02:44:40;86530.44;;;21.53;59.17
81151;BME280;70629;-26.026;27.976;2023-11-18T02:45:21;86539.91;;;21.41;58.85
81151;BME280;70629;-26.026;27.976;2023-11-18T02:46:02;86533.06;;;21.42;58.97
81151;BME280;70629;-26.026;27.976;2023-11-18T02:46:43;86530.31;;;21.42;58.97
81151;BME280;70629;-26.026;27.976;2023-11-18T02:47:23;86533.66;;;21.33;58.87
81151;BME280;70629;-26.026;27.976;2023-11-18T02:48:05;86530.19;;;21.30;58.88
81151;BME280;70629;-26.026;27.976;2023-11-18T02:48:46;86530.88;;;21.31;59.05
81151;BME280;70629;-26.026;27.976;2023-11-18T02:49:26;86529.53;;;21.32;58.99
81151;BME280;70629;-26.026;27.976;2023-11-18T02:50:07;86526.59;;;21.14;59.36
81151;BME280;70629;-26.026;27.976;2023-11-18T02:50:50;86529.53;;;21.32;59.11
81151;BME280;70629;-26.026;27.976;2023-11-18T02:51:29;86527.50;;;21.32;58.65
81151;BME280;70629;-26.026;27.976;2023-11-18T02:52:18;86524.22;;;21.46;58.58
81151;BME280;70629;-26.026;27.976;2023-11-18T02:52:59;86524.50;;;21.14;59.08
81151;BME280;70629;-26.026;27.976;2023-11-18T02:53:39;86529.41;;;21.24;59.65
81151;BME280;70629;-26.026;27.976;2023-11-18T02:54:20;86525.28;;;21.21;59.44
81151;BME280;70629;-26.026;27.976;2023-11-18T02:55:02;86524.06;;;21.32;58.76
81151;BME280;70629;-26.026;27.976;2023-11-18T02:55:42;86529.50;;;21.30;58.54
81151;BME280;70629;-26.026;27.976;2023-11-18T02:56:22;86524.84;;;21.40;58.56
81151;BME280;70629;-26.026;27.976;2023-11-18T02:57:01;86529.59;;;21.38;58.77
81151;BME280;70629;-26.026;27.976;2023-11-18T02:57:41;86526.78;;;21.30;59.09
81151;BME280;70629;-26.026;27.976;2023-11-18T02:58:21;86532.09;;;21.18;59.14
81151;BME280;70629;-26.026;27.976;2023-11-18T02:59:01;86526.06;;;21.27;59.06
81151;BME280;70629;-26.026;27.976;2023-11-18T02:59:44;86527.22;;;21.12;59.44
81151;BME280;70629;-26.026;27.976;2023-11-18T03:00:26;86533.91;;;21.01;60.59
81151;BME280;70629;-26.026;27.976;2023-11-18T03:01:07;86531.81;;;20.97;60.90
81151;BME280;70629;-26.026;27.976;2023-11-18T03:01:47;86533.50;;;21.19;59.89
81151;BME280;70629;-26.026;27.976;2023-11-18T03:02:27;86538.59;;;20.94;59.75
81151;BME280;70629;-26.026;27.976;2023-11-18T03:03:10;86537.38;;;21.06;59.62
81151;BME280;70629;-26.026;27.976;2023-11-18T03:03:50;86535.50;;;21.16;59.98
81151;BME280;70629;-26.026;27.976;2023-11-18T03:04:30;86530.84;;;21.29;59.58
81151;BME280;70629;-26.026;27.976;2023-11-18T03:05:10;86531.50;;;21.25;59.49
81151;BME280;70629;-26.026;27.976;2023-11-18T03:05:51;86526.69;;;21.22;59.58
81151;BME280;70629;-26.026;27.976;2023-11-18T03:06:31;86527.78;;;21.02;59.88
81151;BME280;70629;-26.026;27.976;2023-11-18T03:07:14;86521.91;;;21.24;59.64
81151;BME280;70629;-26.026;27.976;2023-11-18T03:07:55;86530.13;;;21.24;60.29
81151;BME280;70629;-26.026;27.976;2023-11-18T03:08:37;86528.03;;;21.19;60.47
81151;BME280;70629;-26.026;27.976;2023-11-18T03:09:17;86525.34;;;21.25;60.58
81151;BME280;70629;-26.026;27.976;2023-11-18T03:09:58;86535.41;;;21.12;60.70
81151;BME280;70629;-26.026;27.976;2023-11-18T03:10:39;86536.41;;;21.33;60.34
81151;BME280;70629;-26.026;27.976;2023-11-18T03:11:21;86525.28;;;21.21;60.85
81151;BME280;70629;-26.026;27.976;2023-11-18T03:12:02;86526.03;;;21.25;60.57
81151;BME280;70629;-26.026;27.976;2023-11-18T03:12:41;86523.41;;;21.35;59.93
81151;BME280;70629;-26.026;27.976;2023-11-18T03:13:21;86529.47;;;21.26;60.24
81151;BME280;70629;-26.026;27.976;2023-11-18T03:14:02;86526.69;;;21.24;59.93
81151;BME280;70629;-26.026;27.976;2023-11-18T03:14:44;86528.94;;;21.39;59.48
81151;BME280;70629;-26.026;27.976;2023-11-18T03:15:24;86522.69;;;21.31;59.28
81151;BME280;70629;-26.026;27.976;2023-11-18T03:16:08;86517.00;;;21.15;60.03
81151;BME280;70629;-26.026;27.976;2023-11-18T03:16:51;86529.97;;;21.14;59.93
81151;BME280;70629;-26.026;27.976;2023-11-18T03:17:31;86525.00;;;21.00;60.13
81151;BME280;70629;-26.026;27.976;2023-11-18T03:18:11;86524.25;;;20.96;60.66
81151;BME280;70629;-26.026;27.976;2023-11-18T03:18:50;86524.25;;;20.96;60.79
81151;BME280;70629;-26.026;27.976;2023-11-18T03:19:31;86528.28;;;20.91;61.44
81151;BME280;70629;-26.026;27.976;2023-11-18T03:20:12;86522.78;;;20.87;61.70
81151;BME280;70629;-26.026;27.976;2023-11-18T03:20:56;86526.19;;;20.85;61.69
81151;BME280;70629;-26.026;27.976;2023-11-18T03:21:35;86525.00;;;20.98;61.30
81151;BME280;70629;-26.026;27.976;2023-11-18T03:22:16;86537.41;;;21.08;61.54
81151;BME280;70629;-26.026;27.976;2023-11-18T03:22:59;86524.06;;;21.32;60.43
81151;BME280;70629;-26.026;27.976;2023-11-18T03:23:42;86533.75;;;21.43;59.68
81151;BME280;70629;-26.026;27.976;2023-11-18T03:24:22;86525.50;;;21.37;59.91
81151;BME280;70629;-26.026;27.976;2023-11-18T03:25:02;86529.38;;;21.20;60.70
81151;BME280;70629;-26.026;27.976;2023-11-18T03:25:45;86527.50;;;21.32;60.05
81151;BME280;70629;-26.026;27.976;2023-11-18T03:26:26;86527.88;;;21.11;60.96
81151;BME280;70629;-26.026;27.976;2023-11-18T03:27:05;86525.00;;;21.00;61.50
81151;BME280;70629;-26.026;27.976;2023-11-18T03:27:48;86526.34;;;20.97;61.88
81151;BME280;70629;-26.026;27.976;2023-11-18T03:28:28;86523.75;;;21.08;61.71
81151;BME280;70629;-26.026;27.976;2023-11-18T03:29:08;86528.50;;;21.07;61.22
81151;BME280;70629;-26.026;27.976;2023-11-18T03:29:50;86530.72;;;21.17;60.99
81151;BME280;70629;-26.026;27.976;2023-11-18T03:30:33;86528.06;;;21.25;61.17
81151;BME280;70629;-26.026;27.976;2023-11-18T03:31:12;86526.81;;;21.34;60.62
81151;BME280;70629;-26.026;27.976;2023-11-18T03:31:53;86524.13;;;21.36;60.42
81151;BME280;70629;-26.026;27.976;2023-11-18T03:32:34;86531.59;;;21.33;60.68
81151;BME280;70629;-26.026;27.976;2023-11-18T03:33:14;86527.50;;;21.34;60.24
81151;BME280;70629;-26.026;27.976;2023-11-18T03:33:54;86535.63;;;21.28;60.18
81151;BME280;70629;-26.026;27.976;2023-11-18T03:34:34;86527.19;;;21.10;60.76
81151;BME280;70629;-26.026;27.976;2023-11-18T03:35:14;86530.03;;;21.16;61.06